Terminal Aerodrome Forecast
Issued by NWS Greer, SC

Current Version | Previous Version | Text Only | Print | Product List | Glossary On
Versions: 1 2 3 4 5 6 7 8 9 10 11 12 13 14 15
000
FTUS42 KGSP 261120
TAFGSP
TAF
KGSP 261120Z 2612/2712 21004KT P6SM BKN120
     FM261600 23008KT P6SM BKN060 PROB30 2621/2701 4SM -TSRA
      OVC025CB
     FM270100 19003KT P6SM BKN060
     FM271000 21003KT P6SM SCT060 BKN120=

USA.gov is the U.S. government's official web portal to all federal, state and local government web resources and services.